sensor_id;sensor_type;location;lat;lon;timestamp;P1;durP1;ratioP1;P2;durP2;ratioP2
1613;SDS011;800;48.824;9.346;2022-08-05T00:00:20;4.50;;;4.10;;
1613;SDS011;800;48.824;9.346;2022-08-05T00:02:46;5.40;;;5.00;;
1613;SDS011;800;48.824;9.346;2022-08-05T00:05:12;5.17;;;4.77;;
1613;SDS011;800;48.824;9.346;2022-08-05T00:07:37;7.00;;;4.80;;
1613;SDS011;800;48.824;9.346;2022-08-05T00:10:03;5.13;;;4.73;;
1613;SDS011;800;48.824;9.346;2022-08-05T00:12:29;5.10;;;4.70;;
1613;SDS011;800;48.824;9.346;2022-08-05T00:14:55;4.97;;;4.67;;
1613;SDS011;800;48.824;9.346;2022-08-05T00:17:21;5.03;;;4.40;;
1613;SDS011;800;48.824;9.346;2022-08-05T00:19:46;4.70;;;4.40;;
1613;SDS011;800;48.824;9.346;2022-08-05T00:22:12;4.30;;;4.00;;
1613;SDS011;800;48.824;9.346;2022-08-05T00:24:38;5.20;;;4.67;;
1613;SDS011;800;48.824;9.346;2022-08-05T00:27:04;5.30;;;4.90;;
1613;SDS011;800;48.824;9.346;2022-08-05T00:29:30;4.93;;;4.40;;
1613;SDS011;800;48.824;9.346;2022-08-05T00:31:55;4.73;;;4.43;;
1613;SDS011;800;48.824;9.346;2022-08-05T00:34:21;5.00;;;4.60;;
1613;SDS011;800;48.824;9.346;2022-08-05T00:36:47;4.87;;;4.47;;
1613;SDS011;800;48.824;9.346;2022-08-05T00:39:12;4.83;;;4.50;;
1613;SDS011;800;48.824;9.346;2022-08-05T00:41:38;5.60;;;5.17;;
1613;SDS011;800;48.824;9.346;2022-08-05T00:44:04;5.23;;;4.73;;
1613;SDS011;800;48.824;9.346;2022-08-05T00:46:29;4.77;;;4.27;;
1613;SDS011;800;48.824;9.346;2022-08-05T00:48:55;5.20;;;4.70;;
1613;SDS011;800;48.824;9.346;2022-08-05T00:51:21;4.60;;;4.30;;
1613;SDS011;800;48.824;9.346;2022-08-05T00:53:47;7.50;;;4.47;;
1613;SDS011;800;48.824;9.346;2022-08-05T00:56:14;4.47;;;4.20;;
1613;SDS011;800;48.824;9.346;2022-08-05T00:58:41;5.00;;;4.60;;
1613;SDS011;800;48.824;9.346;2022-08-05T01:01:08;5.30;;;4.90;;
1613;SDS011;800;48.824;9.346;2022-08-05T01:03:35;6.40;;;4.40;;
1613;SDS011;800;48.824;9.346;2022-08-05T01:06:02;5.77;;;4.27;;
1613;SDS011;800;48.824;9.346;2022-08-05T01:08:28;5.00;;;4.60;;
1613;SDS011;800;48.824;9.346;2022-08-05T01:10:55;5.50;;;5.00;;
1613;SDS011;800;48.824;9.346;2022-08-05T01:16:39;4.60;;;4.30;;
1613;SDS011;800;48.824;9.346;2022-08-05T01:33:47;5.00;;;4.60;;
1613;SDS011;800;48.824;9.346;2022-08-05T01:36:18;4.60;;;4.20;;
1613;SDS011;800;48.824;9.346;2022-08-05T01:38:47;5.37;;;5.00;;
1613;SDS011;800;48.824;9.346;2022-08-05T01:41:15;8.00;;;5.40;;
1613;SDS011;800;48.824;9.346;2022-08-05T01:43:44;6.40;;;4.97;;
1613;SDS011;800;48.824;9.346;2022-08-05T01:46:12;5.00;;;4.60;;
1613;SDS011;800;48.824;9.346;2022-08-05T01:48:38;6.33;;;4.33;;
1613;SDS011;800;48.824;9.346;2022-08-05T01:51:05;5.10;;;4.67;;
1613;SDS011;800;48.824;9.346;2022-08-05T01:53:32;5.77;;;4.67;;
1613;SDS011;800;48.824;9.346;2022-08-05T01:56:00;7.03;;;4.50;;
1613;SDS011;800;48.824;9.346;2022-08-05T01:58:28;4.60;;;4.20;;
1613;SDS011;800;48.824;9.346;2022-08-05T02:00:56;5.43;;;3.80;;
1613;SDS011;800;48.824;9.346;2022-08-05T02:03:24;5.10;;;4.60;;
1613;SDS011;800;48.824;9.346;2022-08-05T02:06:02;5.50;;;3.30;;
1613;SDS011;800;48.824;9.346;2022-08-05T02:08:30;4.30;;;4.00;;
1613;SDS011;800;48.824;9.346;2022-08-05T02:10:58;5.07;;;4.20;;
1613;SDS011;800;48.824;9.346;2022-08-05T02:13:34;3.90;;;3.60;;
1613;SDS011;800;48.824;9.346;2022-08-05T02:16:21;4.03;;;3.63;;
1613;SDS011;800;48.824;9.346;2022-08-05T02:21:24;5.00;;;4.10;;
1613;SDS011;800;48.824;9.346;2022-08-05T02:23:53;4.50;;;4.10;;
1613;SDS011;800;48.824;9.346;2022-08-05T02:26:24;3.70;;;3.40;;
1613;SDS011;800;48.824;9.346;2022-08-05T02:28:55;4.80;;;4.30;;
1613;SDS011;800;48.824;9.346;2022-08-05T02:31:22;5.50;;;3.97;;
1613;SDS011;800;48.824;9.346;2022-08-05T02:33:53;5.00;;;3.47;;
1613;SDS011;800;48.824;9.346;2022-08-05T02:36:22;4.23;;;3.93;;
1613;SDS011;800;48.824;9.346;2022-08-05T02:38:49;4.57;;;3.63;;
1613;SDS011;800;48.824;9.346;2022-08-05T02:41:19;3.90;;;3.40;;
1613;SDS011;800;48.824;9.346;2022-08-05T02:43:46;5.13;;;4.00;;
1613;SDS011;800;48.824;9.346;2022-08-05T02:46:13;3.90;;;3.60;;
1613;SDS011;800;48.824;9.346;2022-08-05T02:48:42;6.10;;;3.53;;
1613;SDS011;800;48.824;9.346;2022-08-05T02:51:09;3.97;;;3.60;;
1613;SDS011;800;48.824;9.346;2022-08-05T02:53:36;4.10;;;3.57;;
1613;SDS011;800;48.824;9.346;2022-08-05T02:56:03;4.30;;;4.00;;
1613;SDS011;800;48.824;9.346;2022-08-05T02:58:30;4.23;;;3.93;;
1613;SDS011;800;48.824;9.346;2022-08-05T03:01:00;7.00;;;3.90;;
1613;SDS011;800;48.824;9.346;2022-08-05T03:03:27;4.33;;;3.40;;
1613;SDS011;800;48.824;9.346;2022-08-05T03:05:54;5.80;;;3.60;;
1613;SDS011;800;48.824;9.346;2022-08-05T03:08:21;4.87;;;4.13;;
1613;SDS011;800;48.824;9.346;2022-08-05T03:10:48;4.87;;;3.47;;
1613;SDS011;800;48.824;9.346;2022-08-05T03:13:14;4.10;;;3.33;;
1613;SDS011;800;48.824;9.346;2022-08-05T03:15:41;4.63;;;3.27;;
1613;SDS011;800;48.824;9.346;2022-08-05T03:18:11;5.23;;;3.50;;
1613;SDS011;800;48.824;9.346;2022-08-05T03:20:37;7.20;;;3.53;;
1613;SDS011;800;48.824;9.346;2022-08-05T03:23:04;9.33;;;3.87;;
1613;SDS011;800;48.824;9.346;2022-08-05T03:25:32;7.40;;;4.17;;
1613;SDS011;800;48.824;9.346;2022-08-05T03:27:59;4.27;;;3.43;;
1613;SDS011;800;48.824;9.346;2022-08-05T03:30:27;4.97;;;3.50;;
1613;SDS011;800;48.824;9.346;2022-08-05T03:32:56;4.33;;;3.03;;
1613;SDS011;800;48.824;9.346;2022-08-05T03:35:26;3.93;;;3.60;;
1613;SDS011;800;48.824;9.346;2022-08-05T03:37:56;3.50;;;3.20;;
1613;SDS011;800;48.824;9.346;2022-08-05T03:40:22;5.33;;;3.47;;
1613;SDS011;800;48.824;9.346;2022-08-05T03:42:48;3.53;;;3.23;;
1613;SDS011;800;48.824;9.346;2022-08-05T03:45:14;7.63;;;3.80;;
1613;SDS011;800;48.824;9.346;2022-08-05T03:47:39;6.33;;;4.00;;
1613;SDS011;800;48.824;9.346;2022-08-05T03:50:05;5.40;;;4.17;;
1613;SDS011;800;48.824;9.346;2022-08-05T03:52:32;4.80;;;4.00;;
1613;SDS011;800;48.824;9.346;2022-08-05T03:55:03;3.60;;;3.30;;
1613;SDS011;800;48.824;9.346;2022-08-05T03:57:34;3.53;;;3.20;;
1613;SDS011;800;48.824;9.346;2022-08-05T04:00:03;4.90;;;3.97;;
1613;SDS011;800;48.824;9.346;2022-08-05T04:02:31;4.80;;;4.20;;
1613;SDS011;800;48.824;9.346;2022-08-05T04:05:00;7.17;;;3.77;;
1613;SDS011;800;48.824;9.346;2022-08-05T04:07:27;5.87;;;4.37;;
1613;SDS011;800;48.824;9.346;2022-08-05T04:09:53;4.83;;;4.00;;
1613;SDS011;800;48.824;9.346;2022-08-05T04:12:19;3.93;;;3.50;;
1613;SDS011;800;48.824;9.346;2022-08-05T04:14:45;9.03;;;4.10;;
1613;SDS011;800;48.824;9.346;2022-08-05T04:17:11;5.17;;;3.30;;
1613;SDS011;800;48.824;9.346;2022-08-05T04:19:40;5.23;;;4.00;;
1613;SDS011;800;48.824;9.346;2022-08-05T04:22:07;4.97;;;3.87;;
1613;SDS011;800;48.824;9.346;2022-08-05T04:24:33;5.37;;;3.97;;
1613;SDS011;800;48.824;9.346;2022-08-05T04:26:59;7.20;;;4.07;;
1613;SDS011;800;48.824;9.346;2022-08-05T04:29:24;4.07;;;3.77;;
1613;SDS011;800;48.824;9.346;2022-08-05T04:31:50;5.27;;;4.47;;
1613;SDS011;800;48.824;9.346;2022-08-05T04:34:15;9.00;;;3.90;;
1613;SDS011;800;48.824;9.346;2022-08-05T04:36:41;4.13;;;3.70;;
1613;SDS011;800;48.824;9.346;2022-08-05T04:39:06;9.07;;;4.70;;
1613;SDS011;800;48.824;9.346;2022-08-05T04:41:32;4.07;;;3.73;;
1613;SDS011;800;48.824;9.346;2022-08-05T04:43:58;6.93;;;4.53;;
1613;SDS011;800;48.824;9.346;2022-08-05T04:46:23;4.37;;;4.00;;
1613;SDS011;800;48.824;9.346;2022-08-05T04:48:49;4.90;;;3.47;;
1613;SDS011;800;48.824;9.346;2022-08-05T04:51:14;5.43;;;4.30;;
1613;SDS011;800;48.824;9.346;2022-08-05T04:53:41;6.40;;;3.60;;
1613;SDS011;800;48.824;9.346;2022-08-05T04:56:07;4.80;;;4.40;;
1613;SDS011;800;48.824;9.346;2022-08-05T04:58:33;3.97;;;3.67;;
1613;SDS011;800;48.824;9.346;2022-08-05T05:00:58;5.90;;;3.47;;
1613;SDS011;800;48.824;9.346;2022-08-05T05:03:24;4.27;;;3.57;;
1613;SDS011;800;48.824;9.346;2022-08-05T05:05:50;5.33;;;4.10;;
1613;SDS011;800;48.824;9.346;2022-08-05T05:08:15;12.90;;;4.10;;
1613;SDS011;800;48.824;9.346;2022-08-05T05:10:42;7.10;;;4.40;;
1613;SDS011;800;48.824;9.346;2022-08-05T05:13:10;7.60;;;4.30;;
1613;SDS011;800;48.824;9.346;2022-08-05T05:15:37;10.07;;;4.53;;
1613;SDS011;800;48.824;9.346;2022-08-05T05:18:04;6.70;;;4.13;;
1613;SDS011;800;48.824;9.346;2022-08-05T05:20:30;10.87;;;4.53;;
1613;SDS011;800;48.824;9.346;2022-08-05T05:22:57;13.07;;;4.57;;
1613;SDS011;800;48.824;9.346;2022-08-05T05:25:23;4.47;;;3.83;;
1613;SDS011;800;48.824;9.346;2022-08-05T05:27:50;9.30;;;4.53;;
1613;SDS011;800;48.824;9.346;2022-08-05T05:30:19;4.23;;;3.83;;
1613;SDS011;800;48.824;9.346;2022-08-05T05:32:45;8.70;;;4.10;;
1613;SDS011;800;48.824;9.346;2022-08-05T05:35:11;5.10;;;4.30;;
1613;SDS011;800;48.824;9.346;2022-08-05T05:37:49;10.70;;;4.60;;
1613;SDS011;800;48.824;9.346;2022-08-05T05:40:17;5.80;;;3.90;;
1613;SDS011;800;48.824;9.346;2022-08-05T05:42:44;7.17;;;5.00;;
1613;SDS011;800;48.824;9.346;2022-08-05T05:45:13;6.80;;;4.83;;
1613;SDS011;800;48.824;9.346;2022-08-05T05:47:39;6.33;;;4.67;;
1613;SDS011;800;48.824;9.346;2022-08-05T05:50:06;7.80;;;4.43;;
1613;SDS011;800;48.824;9.346;2022-08-05T05:52:33;7.80;;;4.87;;
1613;SDS011;800;48.824;9.346;2022-08-05T05:54:59;10.93;;;4.20;;
1613;SDS011;800;48.824;9.346;2022-08-05T05:57:25;9.00;;;4.80;;
1613;SDS011;800;48.824;9.346;2022-08-05T05:59:51;5.77;;;4.93;;
1613;SDS011;800;48.824;9.346;2022-08-05T06:02:17;14.33;;;5.60;;
1613;SDS011;800;48.824;9.346;2022-08-05T06:04:42;6.20;;;4.43;;
1613;SDS011;800;48.824;9.346;2022-08-05T06:07:08;6.70;;;5.00;;
1613;SDS011;800;48.824;9.346;2022-08-05T06:09:34;6.87;;;5.37;;
1613;SDS011;800;48.824;9.346;2022-08-05T06:11:59;8.87;;;4.60;;
1613;SDS011;800;48.824;9.346;2022-08-05T06:14:25;6.43;;;4.23;;
1613;SDS011;800;48.824;9.346;2022-08-05T06:16:51;4.60;;;4.20;;
1613;SDS011;800;48.824;9.346;2022-08-05T06:19:16;7.30;;;4.63;;
1613;SDS011;800;48.824;9.346;2022-08-05T06:21:42;4.47;;;4.17;;
1613;SDS011;800;48.824;9.346;2022-08-05T06:24:09;6.03;;;4.20;;
1613;SDS011;800;48.824;9.346;2022-08-05T06:26:35;6.90;;;4.17;;
1613;SDS011;800;48.824;9.346;2022-08-05T06:29:00;4.40;;;3.93;;
1613;SDS011;800;48.824;9.346;2022-08-05T06:31:26;7.80;;;4.60;;
1613;SDS011;800;48.824;9.346;2022-08-05T06:33:52;6.10;;;4.40;;
1613;SDS011;800;48.824;9.346;2022-08-05T06:36:17;5.03;;;4.57;;
1613;SDS011;800;48.824;9.346;2022-08-05T06:38:43;8.93;;;4.00;;
1613;SDS011;800;48.824;9.346;2022-08-05T06:41:09;7.00;;;4.53;;
1613;SDS011;800;48.824;9.346;2022-08-05T06:43:35;7.53;;;3.87;;
1613;SDS011;800;48.824;9.346;2022-08-05T06:46:00;4.13;;;3.73;;
1613;SDS011;800;48.824;9.346;2022-08-05T06:48:26;11.73;;;4.50;;
1613;SDS011;800;48.824;9.346;2022-08-05T06:50:52;4.23;;;3.83;;
1613;SDS011;800;48.824;9.346;2022-08-05T06:53:17;4.03;;;3.63;;
1613;SDS011;800;48.824;9.346;2022-08-05T06:55:43;5.63;;;3.60;;
1613;SDS011;800;48.824;9.346;2022-08-05T06:58:08;8.67;;;4.30;;
1613;SDS011;800;48.824;9.346;2022-08-05T07:00:34;6.60;;;4.03;;
1613;SDS011;800;48.824;9.346;2022-08-05T07:02:59;4.17;;;3.77;;
1613;SDS011;800;48.824;9.346;2022-08-05T07:05:25;3.70;;;3.40;;
1613;SDS011;800;48.824;9.346;2022-08-05T07:07:51;3.70;;;3.40;;
1613;SDS011;800;48.824;9.346;2022-08-05T07:10:16;8.00;;;4.00;;
1613;SDS011;800;48.824;9.346;2022-08-05T07:12:42;5.70;;;3.80;;
1613;SDS011;800;48.824;9.346;2022-08-05T07:15:26;4.60;;;3.07;;
1613;SDS011;800;48.824;9.346;2022-08-05T07:18:10;4.70;;;3.73;;
1613;SDS011;800;48.824;9.346;2022-08-05T07:20:36;6.07;;;4.00;;
1613;SDS011;800;48.824;9.346;2022-08-05T07:23:01;4.23;;;3.30;;
1613;SDS011;800;48.824;9.346;2022-08-05T07:25:27;4.00;;;3.70;;
1613;SDS011;800;48.824;9.346;2022-08-05T07:27:53;4.70;;;4.33;;
1613;SDS011;800;48.824;9.346;2022-08-05T07:30:19;5.20;;;3.57;;
1613;SDS011;800;48.824;9.346;2022-08-05T07:32:45;5.53;;;3.73;;
1613;SDS011;800;48.824;9.346;2022-08-05T07:35:11;4.47;;;3.07;;
1613;SDS011;800;48.824;9.346;2022-08-05T07:37:38;4.47;;;3.87;;
1613;SDS011;800;48.824;9.346;2022-08-05T07:40:04;3.30;;;3.00;;
1613;SDS011;800;48.824;9.346;2022-08-05T07:42:31;5.00;;;4.20;;
1613;SDS011;800;48.824;9.346;2022-08-05T07:44:57;5.90;;;3.80;;
1613;SDS011;800;48.824;9.346;2022-08-05T07:47:23;3.50;;;3.20;;
1613;SDS011;800;48.824;9.346;2022-08-05T07:49:49;4.50;;;3.37;;
1613;SDS011;800;48.824;9.346;2022-08-05T07:52:17;6.13;;;3.63;;
1613;SDS011;800;48.824;9.346;2022-08-05T07:54:44;3.97;;;3.03;;
1613;SDS011;800;48.824;9.346;2022-08-05T07:57:09;4.13;;;3.40;;
1613;SDS011;800;48.824;9.346;2022-08-05T07:59:35;3.10;;;2.80;;
1613;SDS011;800;48.824;9.346;2022-08-05T08:02:01;3.60;;;3.30;;
1613;SDS011;800;48.824;9.346;2022-08-05T08:04:26;4.97;;;3.43;;
1613;SDS011;800;48.824;9.346;2022-08-05T08:06:52;4.93;;;3.37;;
1613;SDS011;800;48.824;9.346;2022-08-05T08:09:19;2.93;;;2.70;;
1613;SDS011;800;48.824;9.346;2022-08-05T08:11:45;3.77;;;3.43;;
1613;SDS011;800;48.824;9.346;2022-08-05T08:14:11;3.43;;;3.10;;
1613;SDS011;800;48.824;9.346;2022-08-05T08:16:36;8.00;;;3.20;;
1613;SDS011;800;48.824;9.346;2022-08-05T08:19:02;6.10;;;2.90;;
1613;SDS011;800;48.824;9.346;2022-08-05T08:21:28;4.80;;;3.10;;
1613;SDS011;800;48.824;9.346;2022-08-05T08:23:53;5.07;;;2.90;;
1613;SDS011;800;48.824;9.346;2022-08-05T08:26:19;2.90;;;2.70;;
1613;SDS011;800;48.824;9.346;2022-08-05T08:28:45;3.57;;;3.27;;
1613;SDS011;800;48.824;9.346;2022-08-05T08:31:11;5.73;;;3.07;;
1613;SDS011;800;48.824;9.346;2022-08-05T08:33:38;5.17;;;3.00;;
1613;SDS011;800;48.824;9.346;2022-08-05T08:36:04;2.63;;;2.40;;
1613;SDS011;800;48.824;9.346;2022-08-05T08:38:33;2.60;;;2.40;;
1613;SDS011;800;48.824;9.346;2022-08-05T08:40:59;2.90;;;2.70;;
1613;SDS011;800;48.824;9.346;2022-08-05T08:43:28;3.10;;;2.57;;
1613;SDS011;800;48.824;9.346;2022-08-05T08:45:56;2.33;;;2.10;;
1613;SDS011;800;48.824;9.346;2022-08-05T08:48:23;2.73;;;2.53;;
1613;SDS011;800;48.824;9.346;2022-08-05T08:50:51;2.63;;;2.43;;
1613;SDS011;800;48.824;9.346;2022-08-05T08:53:17;2.40;;;2.20;;
1613;SDS011;800;48.824;9.346;2022-08-05T08:55:43;2.40;;;2.27;;
1613;SDS011;800;48.824;9.346;2022-08-05T08:58:09;4.23;;;2.60;;
1613;SDS011;800;48.824;9.346;2022-08-05T09:00:35;3.30;;;2.23;;
1613;SDS011;800;48.824;9.346;2022-08-05T09:03:01;2.60;;;2.40;;
1613;SDS011;800;48.824;9.346;2022-08-05T09:05:29;2.20;;;2.10;;
1613;SDS011;800;48.824;9.346;2022-08-05T09:07:55;2.97;;;2.77;;
1613;SDS011;800;48.824;9.346;2022-08-05T09:10:20;3.23;;;2.63;;
1613;SDS011;800;48.824;9.346;2022-08-05T09:12:47;3.33;;;3.00;;
1613;SDS011;800;48.824;9.346;2022-08-05T09:15:13;2.57;;;2.37;;
1613;SDS011;800;48.824;9.346;2022-08-05T09:17:38;3.93;;;2.50;;
1613;SDS011;800;48.824;9.346;2022-08-05T09:20:05;3.30;;;3.10;;
1613;SDS011;800;48.824;9.346;2022-08-05T09:25:36;2.17;;;1.97;;
1613;SDS011;800;48.824;9.346;2022-08-05T09:28:16;2.53;;;2.40;;
1613;SDS011;800;48.824;9.346;2022-08-05T09:30:56;3.00;;;2.70;;
1613;SDS011;800;48.824;9.346;2022-08-05T09:33:45;2.40;;;2.30;;
1613;SDS011;800;48.824;9.346;2022-08-05T09:36:13;2.83;;;2.57;;
1613;SDS011;800;48.824;9.346;2022-08-05T09:38:39;4.63;;;2.70;;
1613;SDS011;800;48.824;9.346;2022-08-05T09:41:20;2.97;;;2.77;;
1613;SDS011;800;48.824;9.346;2022-08-05T09:43:45;2.77;;;2.37;;
1613;SDS011;800;48.824;9.346;2022-08-05T09:46:24;3.10;;;2.50;;
1613;SDS011;800;48.824;9.346;2022-08-05T09:48:59;3.20;;;3.00;;
1613;SDS011;800;48.824;9.346;2022-08-05T09:54:02;4.13;;;3.00;;
1613;SDS011;800;48.824;9.346;2022-08-05T09:56:35;6.53;;;2.83;;
1613;SDS011;800;48.824;9.346;2022-08-05T09:59:05;3.60;;;2.67;;
1613;SDS011;800;48.824;9.346;2022-08-05T10:01:36;4.03;;;2.80;;
1613;SDS011;800;48.824;9.346;2022-08-05T10:04:09;3.53;;;2.60;;
1613;SDS011;800;48.824;9.346;2022-08-05T10:06:42;4.53;;;2.47;;
1613;SDS011;800;48.824;9.346;2022-08-05T10:09:18;2.47;;;2.10;;
1613;SDS011;800;48.824;9.346;2022-08-05T10:11:47;3.00;;;2.60;;
1613;SDS011;800;48.824;9.346;2022-08-05T10:14:24;3.43;;;2.60;;
1613;SDS011;800;48.824;9.346;2022-08-05T10:16:50;2.70;;;2.50;;
1613;SDS011;800;48.824;9.346;2022-08-05T10:19:17;3.30;;;2.60;;
1613;SDS011;800;48.824;9.346;2022-08-05T10:21:43;2.70;;;2.50;;
1613;SDS011;800;48.824;9.346;2022-08-05T10:24:14;2.70;;;2.50;;
1613;SDS011;800;48.824;9.346;2022-08-05T10:26:42;2.90;;;2.70;;
1613;SDS011;800;48.824;9.346;2022-08-05T10:29:09;2.87;;;2.67;;
1613;SDS011;800;48.824;9.346;2022-08-05T10:31:35;2.60;;;2.33;;
1613;SDS011;800;48.824;9.346;2022-08-05T10:34:03;2.83;;;2.60;;
1613;SDS011;800;48.824;9.346;2022-08-05T10:36:31;2.40;;;2.20;;
1613;SDS011;800;48.824;9.346;2022-08-05T10:38:59;2.87;;;2.60;;
1613;SDS011;800;48.824;9.346;2022-08-05T10:42:07;2.93;;;2.70;;
1613;SDS011;800;48.824;9.346;2022-08-05T10:44:25;3.47;;;3.17;;
1613;SDS011;800;48.824;9.346;2022-08-05T10:46:53;3.00;;;2.50;;
1613;SDS011;800;48.824;9.346;2022-08-05T10:49:21;2.90;;;2.70;;
1613;SDS011;800;48.824;9.346;2022-08-05T10:51:49;2.70;;;2.40;;
1613;SDS011;800;48.824;9.346;2022-08-05T10:54:21;2.70;;;2.50;;
1613;SDS011;800;48.824;9.346;2022-08-05T10:56:48;2.80;;;2.60;;
1613;SDS011;800;48.824;9.346;2022-08-05T10:59:25;2.97;;;2.77;;
1613;SDS011;800;48.824;9.346;2022-08-05T11:04:53;5.03;;;2.93;;
1613;SDS011;800;48.824;9.346;2022-08-05T11:07:19;3.00;;;2.70;;
1613;SDS011;800;48.824;9.346;2022-08-05T11:09:52;5.47;;;2.63;;
1613;SDS011;800;48.824;9.346;2022-08-05T11:17:34;2.73;;;2.53;;
1613;SDS011;800;48.824;9.346;2022-08-05T11:20:04;3.30;;;2.90;;
1613;SDS011;800;48.824;9.346;2022-08-05T11:22:41;2.27;;;2.17;;
1613;SDS011;800;48.824;9.346;2022-08-05T11:33:51;3.00;;;2.80;;
1613;SDS011;800;48.824;9.346;2022-08-05T11:36:13;3.47;;;2.83;;
1613;SDS011;800;48.824;9.346;2022-08-05T11:41:08;3.13;;;2.83;;
1613;SDS011;800;48.824;9.346;2022-08-05T11:44:03;5.70;;;2.90;;
1613;SDS011;800;48.824;9.346;2022-08-05T11:46:33;4.60;;;2.90;;
1613;SDS011;800;48.824;9.346;2022-08-05T11:49:20;5.10;;;2.87;;
1613;SDS011;800;48.824;9.346;2022-08-05T11:51:48;3.20;;;2.97;;
1613;SDS011;800;48.824;9.346;2022-08-05T11:54:28;3.00;;;2.37;;
1613;SDS011;800;48.824;9.346;2022-08-05T11:56:57;2.70;;;2.50;;
1613;SDS011;800;48.824;9.346;2022-08-05T11:59:25;3.17;;;2.87;;
1613;SDS011;800;48.824;9.346;2022-08-05T12:04:18;3.97;;;3.13;;
1613;SDS011;800;48.824;9.346;2022-08-05T12:06:45;3.60;;;3.30;;
1613;SDS011;800;48.824;9.346;2022-08-05T12:09:10;3.30;;;3.10;;
1613;SDS011;800;48.824;9.346;2022-08-05T12:11:36;2.50;;;2.40;;
1613;SDS011;800;48.824;9.346;2022-08-05T12:14:03;3.20;;;3.00;;
1613;SDS011;800;48.824;9.346;2022-08-05T12:16:31;2.67;;;2.47;;
1613;SDS011;800;48.824;9.346;2022-08-05T12:19:02;3.20;;;3.00;;
1613;SDS011;800;48.824;9.346;2022-08-05T12:21:33;3.50;;;3.20;;
1613;SDS011;800;48.824;9.346;2022-08-05T12:24:01;2.90;;;2.70;;
1613;SDS011;800;48.824;9.346;2022-08-05T12:29:09;3.00;;;2.80;;
1613;SDS011;800;48.824;9.346;2022-08-05T12:31:40;3.47;;;3.17;;
1613;SDS011;800;48.824;9.346;2022-08-05T12:34:13;3.23;;;2.73;;
1613;SDS011;800;48.824;9.346;2022-08-05T12:36:39;2.90;;;2.77;;
1613;SDS011;800;48.824;9.346;2022-08-05T12:39:06;3.10;;;2.90;;
1613;SDS011;800;48.824;9.346;2022-08-05T12:41:33;3.40;;;3.10;;
1613;SDS011;800;48.824;9.346;2022-08-05T12:44:01;2.77;;;2.67;;
1613;SDS011;800;48.824;9.346;2022-08-05T12:46:29;6.90;;;3.03;;
1613;SDS011;800;48.824;9.346;2022-08-05T12:48:57;3.00;;;2.70;;
1613;SDS011;800;48.824;9.346;2022-08-05T12:54:17;3.30;;;3.10;;
1613;SDS011;800;48.824;9.346;2022-08-05T12:56:48;3.07;;;2.87;;
1613;SDS011;800;48.824;9.346;2022-08-05T12:59:16;2.67;;;2.50;;
1613;SDS011;800;48.824;9.346;2022-08-05T13:01:51;3.60;;;3.40;;
1613;SDS011;800;48.824;9.346;2022-08-05T13:04:36;3.03;;;2.83;;
1613;SDS011;800;48.824;9.346;2022-08-05T13:07:04;3.37;;;3.13;;
1613;SDS011;800;48.824;9.346;2022-08-05T13:09:32;3.00;;;2.80;;
1613;SDS011;800;48.824;9.346;2022-08-05T13:14:28;3.73;;;2.87;;
1613;SDS011;800;48.824;9.346;2022-08-05T13:16:59;3.20;;;2.90;;
1613;SDS011;800;48.824;9.346;2022-08-05T13:19:25;3.00;;;2.80;;
1613;SDS011;800;48.824;9.346;2022-08-05T13:21:53;3.10;;;2.90;;
1613;SDS011;800;48.824;9.346;2022-08-05T13:24:20;3.07;;;2.80;;
1613;SDS011;800;48.824;9.346;2022-08-05T13:26:48;3.13;;;2.93;;
1613;SDS011;800;48.824;9.346;2022-08-05T13:29:15;3.23;;;2.90;;
1613;SDS011;800;48.824;9.346;2022-08-05T13:31:41;3.60;;;2.50;;
1613;SDS011;800;48.824;9.346;2022-08-05T13:34:08;3.27;;;3.07;;
1613;SDS011;800;48.824;9.346;2022-08-05T13:36:34;2.70;;;2.50;;
1613;SDS011;800;48.824;9.346;2022-08-05T13:39:00;3.03;;;2.70;;
1613;SDS011;800;48.824;9.346;2022-08-05T13:41:27;3.07;;;2.87;;
1613;SDS011;800;48.824;9.346;2022-08-05T13:43:53;3.63;;;3.43;;
1613;SDS011;800;48.824;9.346;2022-08-05T13:46:19;4.13;;;2.70;;
1613;SDS011;800;48.824;9.346;2022-08-05T13:48:45;3.13;;;2.90;;
1613;SDS011;800;48.824;9.346;2022-08-05T13:51:11;3.00;;;2.80;;
1613;SDS011;800;48.824;9.346;2022-08-05T13:53:40;2.63;;;2.43;;
1613;SDS011;800;48.824;9.346;2022-08-05T13:56:07;3.50;;;3.17;;
1613;SDS011;800;48.824;9.346;2022-08-05T13:58:33;3.90;;;3.17;;
1613;SDS011;800;48.824;9.346;2022-08-05T14:00:58;3.30;;;3.00;;
1613;SDS011;800;48.824;9.346;2022-08-05T14:03:24;3.13;;;2.93;;
1613;SDS011;800;48.824;9.346;2022-08-05T14:05:52;3.10;;;2.90;;
1613;SDS011;800;48.824;9.346;2022-08-05T14:08:18;2.67;;;2.47;;
1613;SDS011;800;48.824;9.346;2022-08-05T14:10:44;3.13;;;2.87;;
1613;SDS011;800;48.824;9.346;2022-08-05T14:13:10;2.90;;;2.77;;
1613;SDS011;800;48.824;9.346;2022-08-05T14:15:35;6.83;;;3.70;;
1613;SDS011;800;48.824;9.346;2022-08-05T14:18:05;2.87;;;2.67;;
1613;SDS011;800;48.824;9.346;2022-08-05T14:20:30;2.93;;;2.63;;
1613;SDS011;800;48.824;9.346;2022-08-05T14:22:57;3.07;;;2.87;;
1613;SDS011;800;48.824;9.346;2022-08-05T14:25:23;3.43;;;3.13;;
1613;SDS011;800;48.824;9.346;2022-08-05T14:27:49;4.33;;;3.20;;
1613;SDS011;800;48.824;9.346;2022-08-05T14:30:15;4.63;;;2.87;;
1613;SDS011;800;48.824;9.346;2022-08-05T14:32:41;3.30;;;3.00;;
1613;SDS011;800;48.824;9.346;2022-08-05T14:35:07;3.00;;;2.80;;
1613;SDS011;800;48.824;9.346;2022-08-05T14:37:33;5.20;;;3.30;;
1613;SDS011;800;48.824;9.346;2022-08-05T14:39:59;2.80;;;2.60;;
1613;SDS011;800;48.824;9.346;2022-08-05T14:42:24;3.03;;;2.83;;
1613;SDS011;800;48.824;9.346;2022-08-05T14:44:50;4.13;;;3.73;;
1613;SDS011;800;48.824;9.346;2022-08-05T14:47:16;3.00;;;2.70;;
1613;SDS011;800;48.824;9.346;2022-08-05T14:49:42;2.60;;;2.50;;
1613;SDS011;800;48.824;9.346;2022-08-05T14:52:08;3.40;;;2.47;;
1613;SDS011;800;48.824;9.346;2022-08-05T14:54:33;4.70;;;2.73;;
1613;SDS011;800;48.824;9.346;2022-08-05T14:56:59;4.23;;;2.40;;
1613;SDS011;800;48.824;9.346;2022-08-05T14:59:25;4.60;;;2.90;;
1613;SDS011;800;48.824;9.346;2022-08-05T15:01:52;3.30;;;3.00;;
1613;SDS011;800;48.824;9.346;2022-08-05T15:04:18;6.37;;;3.80;;
1613;SDS011;800;48.824;9.346;2022-08-05T15:06:44;3.43;;;3.13;;
1613;SDS011;800;48.824;9.346;2022-08-05T15:09:10;3.70;;;3.20;;
1613;SDS011;800;48.824;9.346;2022-08-05T15:11:36;5.10;;;3.43;;
1613;SDS011;800;48.824;9.346;2022-08-05T15:14:01;4.40;;;3.53;;
1613;SDS011;800;48.824;9.346;2022-08-05T15:16:28;3.73;;;3.43;;
1613;SDS011;800;48.824;9.346;2022-08-05T15:18:54;5.73;;;3.43;;
1613;SDS011;800;48.824;9.346;2022-08-05T15:21:19;4.20;;;3.90;;
1613;SDS011;800;48.824;9.346;2022-08-05T15:23:45;3.50;;;3.20;;
1613;SDS011;800;48.824;9.346;2022-08-05T15:26:11;3.70;;;3.40;;
1613;SDS011;800;48.824;9.346;2022-08-05T15:28:36;4.17;;;3.83;;
1613;SDS011;800;48.824;9.346;2022-08-05T15:31:02;29.53;;;4.40;;
1613;SDS011;800;48.824;9.346;2022-08-05T15:33:28;9.53;;;4.73;;
1613;SDS011;800;48.824;9.346;2022-08-05T15:35:54;7.17;;;4.80;;
1613;SDS011;800;48.824;9.346;2022-08-05T15:38:19;7.30;;;4.13;;
1613;SDS011;800;48.824;9.346;2022-08-05T15:40:45;6.80;;;3.57;;
1613;SDS011;800;48.824;9.346;2022-08-05T15:43:11;10.67;;;5.23;;
1613;SDS011;800;48.824;9.346;2022-08-05T15:45:36;4.90;;;4.50;;
1613;SDS011;800;48.824;9.346;2022-08-05T15:48:02;6.63;;;4.30;;
1613;SDS011;800;48.824;9.346;2022-08-05T15:50:28;5.37;;;4.50;;
1613;SDS011;800;48.824;9.346;2022-08-05T15:52:54;4.70;;;4.30;;
1613;SDS011;800;48.824;9.346;2022-08-05T15:55:19;5.53;;;4.10;;
1613;SDS011;800;48.824;9.346;2022-08-05T15:57:45;6.03;;;4.70;;
1613;SDS011;800;48.824;9.346;2022-08-05T16:00:11;5.43;;;4.30;;
1613;SDS011;800;48.824;9.346;2022-08-05T16:02:37;8.70;;;4.17;;
1613;SDS011;800;48.824;9.346;2022-08-05T16:05:03;4.50;;;4.10;;
1613;SDS011;800;48.824;9.346;2022-08-05T16:07:29;3.73;;;3.43;;
1613;SDS011;800;48.824;9.346;2022-08-05T16:09:56;4.63;;;4.13;;
1613;SDS011;800;48.824;9.346;2022-08-05T16:12:21;4.30;;;4.00;;
1613;SDS011;800;48.824;9.346;2022-08-05T16:14:47;4.90;;;3.83;;
1613;SDS011;800;48.824;9.346;2022-08-05T16:17:13;3.73;;;3.53;;
1613;SDS011;800;48.824;9.346;2022-08-05T16:19:38;5.27;;;4.13;;
1613;SDS011;800;48.824;9.346;2022-08-05T16:22:05;6.90;;;4.83;;
1613;SDS011;800;48.824;9.346;2022-08-05T16:24:31;4.83;;;4.43;;
1613;SDS011;800;48.824;9.346;2022-08-05T16:26:58;5.73;;;4.00;;